UDMOR weather

Aviosuperficie Chiasiellis
Mortegliano (UD), Friuli-Venezia Giulia, Italy

Public forecast

Using degrees Celsius for public forecast. Weather courtesy of forecast.io.

METAR (pilot weather report)

Report is more than 2 hours old.

Closest report is Rivolto Air Base, 6.9 nm (12.9 km) WNW. Retrieved 2019/07/17 15:55 UTC (3 hours ago):

LIPI 171555Z /////KT 9999 FEW050 28/14 Q1010 RMK BKN SCT200 VIS MIN 9999 WIND THR06 19008KT WIND THR24 20009KT BLU

TAF (pilot weather forecast)

Forecast is more than 12 hours old.

Closest forecast is Rivolto Air Base, 6.9 nm (12.9 km) WNW. Retrieved 2017/11/16 12:24 UTC (2 years ago):

TAF TAF LIPI 161100Z 1612/1624 08013KT CAVOK BECMG 1616/1618 VRB05KT 9999 FEW040 SCT090